sensor_id;sensor_type;location;lat;lon;timestamp;P1;durP1;ratioP1;P2;durP2;ratioP2
15049;SDS011;7622;42.724;23.250;2023-04-06T00:00:40;10.63;;;8.03;;
15049;SDS011;7622;42.724;23.250;2023-04-06T00:03:07;10.27;;;8.57;;
15049;SDS011;7622;42.724;23.250;2023-04-06T00:05:35;10.67;;;8.10;;
15049;SDS011;7622;42.724;23.250;2023-04-06T00:08:02;9.23;;;8.20;;
15049;SDS011;7622;42.724;23.250;2023-04-06T00:10:29;10.33;;;7.57;;
15049;SDS011;7622;42.724;23.250;2023-04-06T00:12:56;11.80;;;8.40;;
15049;SDS011;7622;42.724;23.250;2023-04-06T00:15:24;9.13;;;8.23;;
15049;SDS011;7622;42.724;23.250;2023-04-06T00:17:51;8.13;;;7.17;;
15049;SDS011;7622;42.724;23.250;2023-04-06T00:20:18;7.63;;;6.93;;
15049;SDS011;7622;42.724;23.250;2023-04-06T00:22:47;7.47;;;6.77;;
15049;SDS011;7622;42.724;23.250;2023-04-06T00:25:14;8.37;;;7.57;;
15049;SDS011;7622;42.724;23.250;2023-04-06T00:27:41;11.13;;;8.33;;
15049;SDS011;7622;42.724;23.250;2023-04-06T00:30:08;10.90;;;8.23;;
15049;SDS011;7622;42.724;23.250;2023-04-06T00:32:36;9.77;;;7.80;;
15049;SDS011;7622;42.724;23.250;2023-04-06T00:35:03;10.57;;;8.53;;
15049;SDS011;7622;42.724;23.250;2023-04-06T00:37:31;12.27;;;8.67;;
15049;SDS011;7622;42.724;23.250;2023-04-06T00:39:59;12.47;;;8.70;;
15049;SDS011;7622;42.724;23.250;2023-04-06T00:42:27;10.37;;;7.87;;
15049;SDS011;7622;42.724;23.250;2023-04-06T00:44:55;13.83;;;8.23;;
15049;SDS011;7622;42.724;23.250;2023-04-06T00:47:23;10.77;;;8.33;;
15049;SDS011;7622;42.724;23.250;2023-04-06T00:49:51;9.30;;;8.13;;
15049;SDS011;7622;42.724;23.250;2023-04-06T00:52:18;9.97;;;8.87;;
15049;SDS011;7622;42.724;23.250;2023-04-06T00:54:46;11.00;;;9.00;;
15049;SDS011;7622;42.724;23.250;2023-04-06T00:57:14;9.83;;;8.13;;
15049;SDS011;7622;42.724;23.250;2023-04-06T00:59:41;8.23;;;7.33;;
15049;SDS011;7622;42.724;23.250;2023-04-06T01:02:08;11.90;;;8.50;;
15049;SDS011;7622;42.724;23.250;2023-04-06T01:04:35;9.97;;;8.40;;
15049;SDS011;7622;42.724;23.250;2023-04-06T01:07:02;9.93;;;8.90;;
15049;SDS011;7622;42.724;23.250;2023-04-06T01:09:29;11.60;;;9.13;;
15049;SDS011;7622;42.724;23.250;2023-04-06T01:11:56;10.30;;;8.37;;
15049;SDS011;7622;42.724;23.250;2023-04-06T01:14:25;9.73;;;8.70;;
15049;SDS011;7622;42.724;23.250;2023-04-06T01:16:52;10.33;;;8.97;;
15049;SDS011;7622;42.724;23.250;2023-04-06T01:19:19;12.97;;;9.00;;
15049;SDS011;7622;42.724;23.250;2023-04-06T01:21:48;10.93;;;9.47;;
15049;SDS011;7622;42.724;23.250;2023-04-06T01:24:19;11.57;;;9.00;;
15049;SDS011;7622;42.724;23.250;2023-04-06T01:26:46;11.73;;;8.93;;
15049;SDS011;7622;42.724;23.250;2023-04-06T01:29:13;9.03;;;8.13;;
15049;SDS011;7622;42.724;23.250;2023-04-06T01:31:40;10.27;;;9.17;;
15049;SDS011;7622;42.724;23.250;2023-04-06T01:34:07;11.10;;;9.73;;
15049;SDS011;7622;42.724;23.250;2023-04-06T01:36:34;10.93;;;9.80;;
15049;SDS011;7622;42.724;23.250;2023-04-06T01:39:01;12.43;;;9.27;;
15049;SDS011;7622;42.724;23.250;2023-04-06T01:41:29;13.37;;;9.50;;
15049;SDS011;7622;42.724;23.250;2023-04-06T01:43:56;14.50;;;10.03;;
15049;SDS011;7622;42.724;23.250;2023-04-06T01:46:23;12.40;;;9.70;;
15049;SDS011;7622;42.724;23.250;2023-04-06T01:48:50;11.83;;;9.67;;
15049;SDS011;7622;42.724;23.250;2023-04-06T01:51:17;13.43;;;9.80;;
15049;SDS011;7622;42.724;23.250;2023-04-06T01:53:44;11.50;;;9.50;;
15049;SDS011;7622;42.724;23.250;2023-04-06T01:56:10;10.43;;;9.30;;
15049;SDS011;7622;42.724;23.250;2023-04-06T01:58:39;12.90;;;9.67;;
15049;SDS011;7622;42.724;23.250;2023-04-06T02:01:05;11.77;;;9.03;;
15049;SDS011;7622;42.724;23.250;2023-04-06T02:03:32;10.87;;;8.93;;
15049;SDS011;7622;42.724;23.250;2023-04-06T02:05:59;14.17;;;9.30;;
15049;SDS011;7622;42.724;23.250;2023-04-06T02:08:26;12.53;;;10.13;;
15049;SDS011;7622;42.724;23.250;2023-04-06T02:10:53;14.07;;;10.63;;
15049;SDS011;7622;42.724;23.250;2023-04-06T02:13:19;13.43;;;9.87;;
15049;SDS011;7622;42.724;23.250;2023-04-06T02:15:48;10.70;;;9.30;;
15049;SDS011;7622;42.724;23.250;2023-04-06T02:18:15;14.03;;;9.60;;
15049;SDS011;7622;42.724;23.250;2023-04-06T02:20:42;12.57;;;9.93;;
15049;SDS011;7622;42.724;23.250;2023-04-06T02:23:09;11.47;;;9.47;;
15049;SDS011;7622;42.724;23.250;2023-04-06T02:25:36;11.40;;;9.77;;
15049;SDS011;7622;42.724;23.250;2023-04-06T02:28:03;12.00;;;8.97;;
15049;SDS011;7622;42.724;23.250;2023-04-06T02:30:30;12.83;;;10.20;;
15049;SDS011;7622;42.724;23.250;2023-04-06T02:32:59;12.57;;;9.40;;
15049;SDS011;7622;42.724;23.250;2023-04-06T02:35:27;13.80;;;9.60;;
15049;SDS011;7622;42.724;23.250;2023-04-06T02:37:54;11.00;;;9.27;;
15049;SDS011;7622;42.724;23.250;2023-04-06T02:40:21;11.90;;;10.27;;
15049;SDS011;7622;42.724;23.250;2023-04-06T02:42:48;13.70;;;10.73;;
15049;SDS011;7622;42.724;23.250;2023-04-06T02:45:15;14.43;;;10.87;;
15049;SDS011;7622;42.724;23.250;2023-04-06T02:47:42;11.23;;;9.30;;
15049;SDS011;7622;42.724;23.250;2023-04-06T02:50:11;11.57;;;8.87;;
15049;SDS011;7622;42.724;23.250;2023-04-06T02:52:39;9.23;;;8.33;;
15049;SDS011;7622;42.724;23.250;2023-04-06T02:55:06;7.37;;;6.67;;
15049;SDS011;7622;42.724;23.250;2023-04-06T02:57:33;6.73;;;6.03;;
15049;SDS011;7622;42.724;23.250;2023-04-06T03:00:00;7.30;;;6.57;;
15049;SDS011;7622;42.724;23.250;2023-04-06T03:02:27;8.77;;;7.07;;
15049;SDS011;7622;42.724;23.250;2023-04-06T03:04:54;12.50;;;8.27;;
15049;SDS011;7622;42.724;23.250;2023-04-06T03:07:22;12.73;;;9.20;;
15049;SDS011;7622;42.724;23.250;2023-04-06T03:09:49;13.67;;;9.10;;
15049;SDS011;7622;42.724;23.250;2023-04-06T03:12:16;13.83;;;9.70;;
15049;SDS011;7622;42.724;23.250;2023-04-06T03:14:43;14.20;;;10.47;;
15049;SDS011;7622;42.724;23.250;2023-04-06T03:17:10;14.87;;;10.80;;
15049;SDS011;7622;42.724;23.250;2023-04-06T03:19:36;14.20;;;10.40;;
15049;SDS011;7622;42.724;23.250;2023-04-06T03:22:03;11.53;;;10.33;;
15049;SDS011;7622;42.724;23.250;2023-04-06T03:24:32;15.33;;;9.80;;
15049;SDS011;7622;42.724;23.250;2023-04-06T03:26:58;20.47;;;10.17;;
15049;SDS011;7622;42.724;23.250;2023-04-06T03:29:25;13.07;;;10.93;;
15049;SDS011;7622;42.724;23.250;2023-04-06T03:31:52;14.50;;;10.73;;
15049;SDS011;7622;42.724;23.250;2023-04-06T03:34:20;14.83;;;11.57;;
15049;SDS011;7622;42.724;23.250;2023-04-06T03:36:47;14.00;;;11.13;;
15049;SDS011;7622;42.724;23.250;2023-04-06T03:39:15;19.90;;;11.57;;
15049;SDS011;7622;42.724;23.250;2023-04-06T03:41:43;17.50;;;11.53;;
15049;SDS011;7622;42.724;23.250;2023-04-06T03:44:10;19.17;;;11.60;;
15049;SDS011;7622;42.724;23.250;2023-04-06T03:46:37;16.63;;;10.70;;
15049;SDS011;7622;42.724;23.250;2023-04-06T03:49:04;16.37;;;11.97;;
15049;SDS011;7622;42.724;23.250;2023-04-06T03:51:31;17.00;;;11.73;;
15049;SDS011;7622;42.724;23.250;2023-04-06T03:53:59;17.67;;;12.33;;
15049;SDS011;7622;42.724;23.250;2023-04-06T03:56:25;17.37;;;12.47;;
15049;SDS011;7622;42.724;23.250;2023-04-06T03:58:54;15.80;;;11.77;;
15049;SDS011;7622;42.724;23.250;2023-04-06T04:01:20;17.33;;;12.80;;
15049;SDS011;7622;42.724;23.250;2023-04-06T04:03:47;17.23;;;12.50;;
15049;SDS011;7622;42.724;23.250;2023-04-06T04:06:14;31.33;;;11.77;;
15049;SDS011;7622;42.724;23.250;2023-04-06T04:08:41;19.13;;;12.83;;
15049;SDS011;7622;42.724;23.250;2023-04-06T04:11:08;22.77;;;14.57;;
15049;SDS011;7622;42.724;23.250;2023-04-06T04:13:35;17.63;;;13.87;;
15049;SDS011;7622;42.724;23.250;2023-04-06T04:16:03;19.97;;;12.90;;
15049;SDS011;7622;42.724;23.250;2023-04-06T04:18:30;17.00;;;12.37;;
15049;SDS011;7622;42.724;23.250;2023-04-06T04:20:57;17.00;;;11.83;;
15049;SDS011;7622;42.724;23.250;2023-04-06T04:23:24;18.10;;;12.50;;
15049;SDS011;7622;42.724;23.250;2023-04-06T04:25:51;14.63;;;10.67;;
15049;SDS011;7622;42.724;23.250;2023-04-06T04:28:18;15.90;;;10.40;;
15049;SDS011;7622;42.724;23.250;2023-04-06T04:30:45;19.77;;;9.53;;
15049;SDS011;7622;42.724;23.250;2023-04-06T04:33:13;18.17;;;9.90;;
15049;SDS011;7622;42.724;23.250;2023-04-06T04:35:40;14.60;;;11.00;;
15049;SDS011;7622;42.724;23.250;2023-04-06T04:38:07;19.00;;;11.43;;
15049;SDS011;7622;42.724;23.250;2023-04-06T04:40:34;18.73;;;11.70;;
15049;SDS011;7622;42.724;23.250;2023-04-06T04:43:01;16.63;;;12.47;;
15049;SDS011;7622;42.724;23.250;2023-04-06T04:45:28;19.27;;;11.70;;
15049;SDS011;7622;42.724;23.250;2023-04-06T04:47:55;19.33;;;12.03;;
15049;SDS011;7622;42.724;23.250;2023-04-06T04:50:23;17.87;;;11.93;;
15049;SDS011;7622;42.724;23.250;2023-04-06T04:52:50;21.53;;;10.30;;
15049;SDS011;7622;42.724;23.250;2023-04-06T04:55:17;15.00;;;10.67;;
15049;SDS011;7622;42.724;23.250;2023-04-06T04:57:44;14.07;;;10.23;;
15049;SDS011;7622;42.724;23.250;2023-04-06T05:00:11;13.20;;;9.93;;
15049;SDS011;7622;42.724;23.250;2023-04-06T05:02:38;19.87;;;10.50;;
15049;SDS011;7622;42.724;23.250;2023-04-06T05:05:06;13.60;;;9.70;;
15049;SDS011;7622;42.724;23.250;2023-04-06T05:07:34;13.20;;;9.33;;
15049;SDS011;7622;42.724;23.250;2023-04-06T05:10:01;15.43;;;9.67;;
15049;SDS011;7622;42.724;23.250;2023-04-06T05:12:28;16.40;;;9.67;;
15049;SDS011;7622;42.724;23.250;2023-04-06T05:14:55;11.53;;;9.43;;
15049;SDS011;7622;42.724;23.250;2023-04-06T05:17:22;15.03;;;9.70;;
15049;SDS011;7622;42.724;23.250;2023-04-06T05:19:49;12.87;;;10.07;;
15049;SDS011;7622;42.724;23.250;2023-04-06T05:22:16;18.00;;;10.10;;
15049;SDS011;7622;42.724;23.250;2023-04-06T05:24:44;17.67;;;11.10;;
15049;SDS011;7622;42.724;23.250;2023-04-06T05:27:11;10.23;;;9.13;;
15049;SDS011;7622;42.724;23.250;2023-04-06T05:29:38;17.57;;;10.07;;
15049;SDS011;7622;42.724;23.250;2023-04-06T05:32:05;16.30;;;10.27;;
15049;SDS011;7622;42.724;23.250;2023-04-06T05:34:35;13.57;;;9.73;;
15049;SDS011;7622;42.724;23.250;2023-04-06T05:37:04;16.07;;;10.43;;
15049;SDS011;7622;42.724;23.250;2023-04-06T05:39:31;22.23;;;12.33;;
15049;SDS011;7622;42.724;23.250;2023-04-06T05:42:01;12.40;;;9.87;;
15049;SDS011;7622;42.724;23.250;2023-04-06T05:44:31;20.57;;;11.37;;
15049;SDS011;7622;42.724;23.250;2023-04-06T05:46:58;17.03;;;12.07;;
15049;SDS011;7622;42.724;23.250;2023-04-06T05:49:25;17.87;;;11.67;;
15049;SDS011;7622;42.724;23.250;2023-04-06T05:51:52;16.37;;;11.80;;
15049;SDS011;7622;42.724;23.250;2023-04-06T05:54:18;18.60;;;12.60;;
15049;SDS011;7622;42.724;23.250;2023-04-06T05:56:46;18.43;;;12.20;;
15049;SDS011;7622;42.724;23.250;2023-04-06T05:59:14;21.40;;;12.80;;
15049;SDS011;7622;42.724;23.250;2023-04-06T06:01:41;19.03;;;11.17;;
15049;SDS011;7622;42.724;23.250;2023-04-06T06:04:08;18.87;;;12.23;;
15049;SDS011;7622;42.724;23.250;2023-04-06T06:06:35;17.40;;;12.33;;
15049;SDS011;7622;42.724;23.250;2023-04-06T06:09:02;12.07;;;10.23;;
15049;SDS011;7622;42.724;23.250;2023-04-06T06:11:29;17.80;;;10.30;;
15049;SDS011;7622;42.724;23.250;2023-04-06T06:13:58;17.87;;;9.87;;
15049;SDS011;7622;42.724;23.250;2023-04-06T06:16:26;13.10;;;10.03;;
15049;SDS011;7622;42.724;23.250;2023-04-06T06:18:53;14.70;;;10.10;;
15049;SDS011;7622;42.724;23.250;2023-04-06T06:21:20;17.60;;;11.67;;
15049;SDS011;7622;42.724;23.250;2023-04-06T06:23:47;10.87;;;9.00;;
15049;SDS011;7622;42.724;23.250;2023-04-06T06:26:15;24.40;;;11.80;;
15049;SDS011;7622;42.724;23.250;2023-04-06T06:28:42;14.87;;;10.97;;
15049;SDS011;7622;42.724;23.250;2023-04-06T06:31:09;16.00;;;10.27;;
15049;SDS011;7622;42.724;23.250;2023-04-06T06:33:37;14.77;;;9.70;;
15049;SDS011;7622;42.724;23.250;2023-04-06T06:36:04;13.47;;;10.10;;
15049;SDS011;7622;42.724;23.250;2023-04-06T06:38:32;14.67;;;9.30;;
15049;SDS011;7622;42.724;23.250;2023-04-06T06:41:00;16.50;;;10.50;;
15049;SDS011;7622;42.724;23.250;2023-04-06T06:43:27;14.97;;;9.50;;
15049;SDS011;7622;42.724;23.250;2023-04-06T06:45:53;19.33;;;10.77;;
15049;SDS011;7622;42.724;23.250;2023-04-06T06:48:20;15.73;;;10.00;;
15049;SDS011;7622;42.724;23.250;2023-04-06T06:50:49;17.90;;;11.10;;
15049;SDS011;7622;42.724;23.250;2023-04-06T06:53:15;14.33;;;10.83;;
15049;SDS011;7622;42.724;23.250;2023-04-06T06:55:42;17.57;;;10.50;;
15049;SDS011;7622;42.724;23.250;2023-04-06T06:58:10;12.87;;;10.10;;
15049;SDS011;7622;42.724;23.250;2023-04-06T07:00:37;15.47;;;10.13;;
15049;SDS011;7622;42.724;23.250;2023-04-06T07:03:04;12.53;;;10.37;;
15049;SDS011;7622;42.724;23.250;2023-04-06T07:05:31;15.43;;;10.07;;
15049;SDS011;7622;42.724;23.250;2023-04-06T07:07:59;14.77;;;10.37;;
15049;SDS011;7622;42.724;23.250;2023-04-06T07:10:26;18.83;;;10.97;;
15049;SDS011;7622;42.724;23.250;2023-04-06T07:12:53;16.93;;;9.93;;
15049;SDS011;7622;42.724;23.250;2023-04-06T07:15:20;13.10;;;8.93;;
15049;SDS011;7622;42.724;23.250;2023-04-06T07:17:47;13.80;;;9.60;;
15049;SDS011;7622;42.724;23.250;2023-04-06T07:20:14;21.37;;;9.33;;
15049;SDS011;7622;42.724;23.250;2023-04-06T07:22:42;15.87;;;10.03;;
15049;SDS011;7622;42.724;23.250;2023-04-06T07:25:11;15.70;;;10.07;;
15049;SDS011;7622;42.724;23.250;2023-04-06T07:27:38;14.03;;;9.60;;
15049;SDS011;7622;42.724;23.250;2023-04-06T07:30:05;12.80;;;9.80;;
15049;SDS011;7622;42.724;23.250;2023-04-06T07:32:33;12.40;;;9.70;;
15049;SDS011;7622;42.724;23.250;2023-04-06T07:35:00;13.83;;;9.17;;
15049;SDS011;7622;42.724;23.250;2023-04-06T07:37:28;18.73;;;11.67;;
15049;SDS011;7622;42.724;23.250;2023-04-06T07:39:54;13.40;;;10.53;;
15049;SDS011;7622;42.724;23.250;2023-04-06T07:42:23;14.60;;;9.97;;
15049;SDS011;7622;42.724;23.250;2023-04-06T07:44:49;14.57;;;9.10;;
15049;SDS011;7622;42.724;23.250;2023-04-06T07:47:16;14.40;;;9.87;;
15049;SDS011;7622;42.724;23.250;2023-04-06T07:49:43;12.70;;;9.33;;
15049;SDS011;7622;42.724;23.250;2023-04-06T07:52:10;12.20;;;9.40;;
15049;SDS011;7622;42.724;23.250;2023-04-06T07:54:37;10.80;;;9.47;;
15049;SDS011;7622;42.724;23.250;2023-04-06T07:57:04;15.73;;;8.80;;
15049;SDS011;7622;42.724;23.250;2023-04-06T07:59:32;14.40;;;8.10;;
15049;SDS011;7622;42.724;23.250;2023-04-06T08:01:59;13.07;;;9.67;;
15049;SDS011;7622;42.724;23.250;2023-04-06T08:04:26;16.13;;;10.10;;
15049;SDS011;7622;42.724;23.250;2023-04-06T08:06:52;12.17;;;9.17;;
15049;SDS011;7622;42.724;23.250;2023-04-06T08:09:19;14.60;;;8.23;;
15049;SDS011;7622;42.724;23.250;2023-04-06T08:11:46;15.50;;;9.43;;
15049;SDS011;7622;42.724;23.250;2023-04-06T08:14:13;10.37;;;8.27;;
15049;SDS011;7622;42.724;23.250;2023-04-06T08:16:42;12.67;;;8.70;;
15049;SDS011;7622;42.724;23.250;2023-04-06T08:19:09;9.43;;;8.07;;
15049;SDS011;7622;42.724;23.250;2023-04-06T08:21:36;20.10;;;9.20;;
15049;SDS011;7622;42.724;23.250;2023-04-06T08:24:03;16.80;;;9.53;;
15049;SDS011;7622;42.724;23.250;2023-04-06T08:26:31;13.43;;;7.87;;
15049;SDS011;7622;42.724;23.250;2023-04-06T08:28:57;9.17;;;8.07;;
15049;SDS011;7622;42.724;23.250;2023-04-06T08:31:24;11.53;;;8.40;;
15049;SDS011;7622;42.724;23.250;2023-04-06T08:33:53;8.53;;;7.63;;
15049;SDS011;7622;42.724;23.250;2023-04-06T08:36:19;9.77;;;8.37;;
15049;SDS011;7622;42.724;23.250;2023-04-06T08:38:48;9.13;;;7.73;;
15049;SDS011;7622;42.724;23.250;2023-04-06T08:41:15;11.00;;;8.03;;
15049;SDS011;7622;42.724;23.250;2023-04-06T08:43:43;11.97;;;8.70;;
15049;SDS011;7622;42.724;23.250;2023-04-06T08:46:13;29.27;;;9.00;;
15049;SDS011;7622;42.724;23.250;2023-04-06T08:48:41;10.53;;;8.03;;
15049;SDS011;7622;42.724;23.250;2023-04-06T08:51:09;9.30;;;8.37;;
15049;SDS011;7622;42.724;23.250;2023-04-06T08:53:36;13.13;;;8.70;;
15049;SDS011;7622;42.724;23.250;2023-04-06T08:56:04;11.63;;;8.83;;
15049;SDS011;7622;42.724;23.250;2023-04-06T08:58:33;20.77;;;9.40;;
15049;SDS011;7622;42.724;23.250;2023-04-06T09:01:01;12.03;;;9.43;;
15049;SDS011;7622;42.724;23.250;2023-04-06T09:03:32;24.77;;;9.80;;
15049;SDS011;7622;42.724;23.250;2023-04-06T09:06:03;12.03;;;9.03;;
15049;SDS011;7622;42.724;23.250;2023-04-06T09:08:32;9.73;;;8.73;;
15049;SDS011;7622;42.724;23.250;2023-04-06T09:11:00;11.73;;;7.77;;
15049;SDS011;7622;42.724;23.250;2023-04-06T09:13:27;12.80;;;8.47;;
15049;SDS011;7622;42.724;23.250;2023-04-06T09:16:00;8.97;;;7.87;;
15049;SDS011;7622;42.724;23.250;2023-04-06T09:18:28;12.17;;;8.97;;
15049;SDS011;7622;42.724;23.250;2023-04-06T09:20:57;9.50;;;8.23;;
15049;SDS011;7622;42.724;23.250;2023-04-06T09:23:24;11.13;;;7.77;;
15049;SDS011;7622;42.724;23.250;2023-04-06T09:25:53;11.27;;;7.67;;
15049;SDS011;7622;42.724;23.250;2023-04-06T09:28:40;15.63;;;8.30;;
15049;SDS011;7622;42.724;23.250;2023-04-06T09:31:07;12.70;;;7.23;;
15049;SDS011;7622;42.724;23.250;2023-04-06T09:33:37;11.67;;;7.73;;
15049;SDS011;7622;42.724;23.250;2023-04-06T09:36:04;9.10;;;8.17;;
15049;SDS011;7622;42.724;23.250;2023-04-06T09:38:32;8.10;;;7.30;;
15049;SDS011;7622;42.724;23.250;2023-04-06T09:41:00;10.70;;;7.67;;
15049;SDS011;7622;42.724;23.250;2023-04-06T09:43:27;9.50;;;7.90;;
15049;SDS011;7622;42.724;23.250;2023-04-06T09:45:55;14.20;;;9.03;;
15049;SDS011;7622;42.724;23.250;2023-04-06T09:48:22;12.00;;;7.20;;
15049;SDS011;7622;42.724;23.250;2023-04-06T09:50:52;8.90;;;7.60;;
15049;SDS011;7622;42.724;23.250;2023-04-06T09:53:25;11.33;;;8.73;;
15049;SDS011;7622;42.724;23.250;2023-04-06T09:55:53;11.20;;;8.33;;
15049;SDS011;7622;42.724;23.250;2023-04-06T09:58:30;8.27;;;7.47;;
15049;SDS011;7622;42.724;23.250;2023-04-06T10:01:01;10.17;;;7.90;;
15049;SDS011;7622;42.724;23.250;2023-04-06T10:03:35;11.40;;;8.10;;
15049;SDS011;7622;42.724;23.250;2023-04-06T10:06:08;8.60;;;7.70;;
15049;SDS011;7622;42.724;23.250;2023-04-06T10:08:38;10.83;;;7.67;;
15049;SDS011;7622;42.724;23.250;2023-04-06T10:11:07;8.93;;;7.20;;
15049;SDS011;7622;42.724;23.250;2023-04-06T10:13:36;7.60;;;6.83;;
15049;SDS011;7622;42.724;23.250;2023-04-06T10:16:03;6.97;;;5.93;;
15049;SDS011;7622;42.724;23.250;2023-04-06T10:18:31;7.60;;;6.13;;
15049;SDS011;7622;42.724;23.250;2023-04-06T10:21:00;8.03;;;7.23;;
15049;SDS011;7622;42.724;23.250;2023-04-06T10:23:31;9.20;;;7.63;;
15049;SDS011;7622;42.724;23.250;2023-04-06T10:26:01;8.40;;;7.10;;
15049;SDS011;7622;42.724;23.250;2023-04-06T10:28:30;7.63;;;6.60;;
15049;SDS011;7622;42.724;23.250;2023-04-06T10:31:00;8.33;;;7.23;;
15049;SDS011;7622;42.724;23.250;2023-04-06T10:33:30;8.57;;;7.33;;
15049;SDS011;7622;42.724;23.250;2023-04-06T10:35:57;17.33;;;8.60;;
15049;SDS011;7622;42.724;23.250;2023-04-06T10:38:34;11.23;;;7.27;;
15049;SDS011;7622;42.724;23.250;2023-04-06T10:41:05;7.90;;;7.20;;
15049;SDS011;7622;42.724;23.250;2023-04-06T10:43:33;9.30;;;7.80;;
15049;SDS011;7622;42.724;23.250;2023-04-06T10:46:03;11.33;;;7.53;;
15049;SDS011;7622;42.724;23.250;2023-04-06T10:48:37;8.93;;;6.80;;
15049;SDS011;7622;42.724;23.250;2023-04-06T10:51:09;8.07;;;7.30;;
15049;SDS011;7622;42.724;23.250;2023-04-06T10:53:37;8.20;;;7.40;;
15049;SDS011;7622;42.724;23.250;2023-04-06T10:56:04;7.50;;;6.83;;
15049;SDS011;7622;42.724;23.250;2023-04-06T10:58:37;11.63;;;8.43;;
15049;SDS011;7622;42.724;23.250;2023-04-06T11:01:05;9.60;;;6.47;;
15049;SDS011;7622;42.724;23.250;2023-04-06T11:03:36;9.13;;;6.80;;
15049;SDS011;7622;42.724;23.250;2023-04-06T11:06:09;9.40;;;7.83;;
15049;SDS011;7622;42.724;23.250;2023-04-06T11:08:36;8.57;;;7.67;;
15049;SDS011;7622;42.724;23.250;2023-04-06T11:11:05;11.40;;;7.63;;
15049;SDS011;7622;42.724;23.250;2023-04-06T11:13:39;7.33;;;6.63;;
15049;SDS011;7622;42.724;23.250;2023-04-06T11:16:13;8.03;;;7.23;;
15049;SDS011;7622;42.724;23.250;2023-04-06T11:18:48;7.90;;;6.87;;
15049;SDS011;7622;42.724;23.250;2023-04-06T11:21:16;6.87;;;6.27;;
15049;SDS011;7622;42.724;23.250;2023-04-06T11:23:43;13.03;;;6.80;;
15049;SDS011;7622;42.724;23.250;2023-04-06T11:26:10;8.07;;;6.70;;
15049;SDS011;7622;42.724;23.250;2023-04-06T11:28:38;9.93;;;7.33;;
15049;SDS011;7622;42.724;23.250;2023-04-06T11:31:05;10.40;;;6.80;;
15049;SDS011;7622;42.724;23.250;2023-04-06T11:33:36;9.40;;;6.93;;
15049;SDS011;7622;42.724;23.250;2023-04-06T11:36:04;7.13;;;6.47;;
15049;SDS011;7622;42.724;23.250;2023-04-06T11:38:31;9.43;;;6.87;;
15049;SDS011;7622;42.724;23.250;2023-04-06T11:40:58;7.23;;;6.53;;
15049;SDS011;7622;42.724;23.250;2023-04-06T11:43:27;9.13;;;8.17;;
15049;SDS011;7622;42.724;23.250;2023-04-06T11:46:01;8.97;;;7.97;;
15049;SDS011;7622;42.724;23.250;2023-04-06T11:48:29;7.90;;;7.23;;
15049;SDS011;7622;42.724;23.250;2023-04-06T11:50:58;9.60;;;7.97;;
15049;SDS011;7622;42.724;23.250;2023-04-06T11:53:26;7.53;;;6.93;;
15049;SDS011;7622;42.724;23.250;2023-04-06T11:55:56;7.77;;;7.07;;
15049;SDS011;7622;42.724;23.250;2023-04-06T11:58:25;8.10;;;7.17;;
15049;SDS011;7622;42.724;23.250;2023-04-06T12:00:52;8.60;;;6.97;;
15049;SDS011;7622;42.724;23.250;2023-04-06T12:03:19;6.97;;;6.00;;
15049;SDS011;7622;42.724;23.250;2023-04-06T12:05:46;11.00;;;7.73;;
15049;SDS011;7622;42.724;23.250;2023-04-06T12:08:14;7.87;;;7.17;;
15049;SDS011;7622;42.724;23.250;2023-04-06T12:10:41;7.57;;;6.87;;
15049;SDS011;7622;42.724;23.250;2023-04-06T12:13:08;7.40;;;6.67;;
15049;SDS011;7622;42.724;23.250;2023-04-06T12:15:35;9.60;;;6.53;;
15049;SDS011;7622;42.724;23.250;2023-04-06T12:18:02;6.57;;;5.83;;
15049;SDS011;7622;42.724;23.250;2023-04-06T12:20:29;5.87;;;5.30;;
15049;SDS011;7622;42.724;23.250;2023-04-06T12:22:55;9.33;;;6.43;;
15049;SDS011;7622;42.724;23.250;2023-04-06T12:25:24;12.93;;;6.87;;
15049;SDS011;7622;42.724;23.250;2023-04-06T12:27:50;6.60;;;6.10;;
15049;SDS011;7622;42.724;23.250;2023-04-06T12:30:17;8.00;;;6.87;;
15049;SDS011;7622;42.724;23.250;2023-04-06T12:32:44;8.30;;;6.80;;
15049;SDS011;7622;42.724;23.250;2023-04-06T12:35:11;7.73;;;6.93;;
15049;SDS011;7622;42.724;23.250;2023-04-06T12:37:40;7.23;;;6.67;;
15049;SDS011;7622;42.724;23.250;2023-04-06T12:40:08;8.70;;;7.40;;
15049;SDS011;7622;42.724;23.250;2023-04-06T12:42:39;12.37;;;8.63;;
15049;SDS011;7622;42.724;23.250;2023-04-06T12:45:07;10.43;;;7.93;;
15049;SDS011;7622;42.724;23.250;2023-04-06T12:47:34;11.07;;;7.23;;
15049;SDS011;7622;42.724;23.250;2023-04-06T12:50:03;9.57;;;7.10;;
15049;SDS011;7622;42.724;23.250;2023-04-06T12:52:30;8.00;;;7.30;;
15049;SDS011;7622;42.724;23.250;2023-04-06T12:55:00;7.77;;;7.07;;
15049;SDS011;7622;42.724;23.250;2023-04-06T12:57:27;17.10;;;8.40;;
15049;SDS011;7622;42.724;23.250;2023-04-06T12:59:55;7.50;;;6.80;;
15049;SDS011;7622;42.724;23.250;2023-04-06T13:02:23;7.17;;;6.50;;
15049;SDS011;7622;42.724;23.250;2023-04-06T13:04:50;7.70;;;6.83;;
15049;SDS011;7622;42.724;23.250;2023-04-06T13:07:17;7.23;;;6.63;;
15049;SDS011;7622;42.724;23.250;2023-04-06T13:09:44;10.33;;;8.27;;
15049;SDS011;7622;42.724;23.250;2023-04-06T13:12:12;12.80;;;7.60;;
15049;SDS011;7622;42.724;23.250;2023-04-06T13:14:39;6.87;;;6.17;;
15049;SDS011;7622;42.724;23.250;2023-04-06T13:17:08;10.23;;;7.37;;
15049;SDS011;7622;42.724;23.250;2023-04-06T13:19:34;8.63;;;7.27;;
15049;SDS011;7622;42.724;23.250;2023-04-06T13:22:01;9.93;;;6.17;;
15049;SDS011;7622;42.724;23.250;2023-04-06T13:24:28;6.83;;;5.53;;
15049;SDS011;7622;42.724;23.250;2023-04-06T13:26:55;8.03;;;5.63;;
15049;SDS011;7622;42.724;23.250;2023-04-06T13:29:22;8.27;;;5.67;;
15049;SDS011;7622;42.724;23.250;2023-04-06T13:31:49;6.73;;;5.90;;
15049;SDS011;7622;42.724;23.250;2023-04-06T13:34:17;7.10;;;6.03;;
15049;SDS011;7622;42.724;23.250;2023-04-06T13:36:44;11.97;;;6.33;;
15049;SDS011;7622;42.724;23.250;2023-04-06T13:39:11;6.53;;;6.00;;
15049;SDS011;7622;42.724;23.250;2023-04-06T13:41:38;15.07;;;6.90;;
15049;SDS011;7622;42.724;23.250;2023-04-06T13:44:05;7.83;;;6.97;;
15049;SDS011;7622;42.724;23.250;2023-04-06T13:46:32;6.77;;;5.83;;
15049;SDS011;7622;42.724;23.250;2023-04-06T13:48:59;7.87;;;6.37;;
15049;SDS011;7622;42.724;23.250;2023-04-06T13:51:27;6.50;;;5.70;;
15049;SDS011;7622;42.724;23.250;2023-04-06T13:53:54;6.70;;;6.13;;
15049;SDS011;7622;42.724;23.250;2023-04-06T13:56:21;8.20;;;5.40;;
15049;SDS011;7622;42.724;23.250;2023-04-06T13:58:47;6.50;;;6.00;;
15049;SDS011;7622;42.724;23.250;2023-04-06T14:01:14;6.20;;;5.60;;
15049;SDS011;7622;42.724;23.250;2023-04-06T14:03:41;6.90;;;6.20;;
15049;SDS011;7622;42.724;23.250;2023-04-06T14:06:10;9.37;;;6.73;;
15049;SDS011;7622;42.724;23.250;2023-04-06T14:08:39;10.43;;;6.83;;
15049;SDS011;7622;42.724;23.250;2023-04-06T14:11:06;6.30;;;5.70;;
15049;SDS011;7622;42.724;23.250;2023-04-06T14:13:37;7.03;;;5.87;;
15049;SDS011;7622;42.724;23.250;2023-04-06T14:16:04;7.00;;;6.30;;
15049;SDS011;7622;42.724;23.250;2023-04-06T14:18:31;13.50;;;6.30;;
15049;SDS011;7622;42.724;23.250;2023-04-06T14:20:59;7.43;;;5.73;;
15049;SDS011;7622;42.724;23.250;2023-04-06T14:23:26;9.50;;;5.83;;
15049;SDS011;7622;42.724;23.250;2023-04-06T14:26:01;12.57;;;6.27;;
15049;SDS011;7622;42.724;23.250;2023-04-06T14:28:29;7.80;;;6.57;;
15049;SDS011;7622;42.724;23.250;2023-04-06T14:30:58;7.13;;;6.43;;
15049;SDS011;7622;42.724;23.250;2023-04-06T14:33:25;7.43;;;6.73;;
15049;SDS011;7622;42.724;23.250;2023-04-06T14:35:52;11.57;;;6.40;;
15049;SDS011;7622;42.724;23.250;2023-04-06T14:38:19;9.83;;;7.47;;